Pagrindinis puslapis
METAR-TAF:

METAR-TAF

Oro uostai :

Džengdžou, Kinija

platuma: 34-43N, ilguma: 113-39E, Aukštis: 111 m

Dabartinis oras

Ataskaita buvo paskelbta 45 minutes, ne 13:00 UTC
Vėjas 2 kt nuo kintamojo kryptimis
Temperatūra 7°C
Drėgmė 81%
Slėgis 1023 hPa
Matomumas: 6000 m

METAR: ZHCC 211300Z VRB01MPS 6000 NSC 07/04 Q1023 NOSIG

Laikas: 21:45 (13:45 UTC)

Prognozė

Ataskaita buvo paskelbta 4 valandos ir 37 minutes, ne 09:08 UTC
Prognozė galioja nuo 21 metu 12 UTC su 22 metu 12 UTC
Vėjas 6 kt iš Pietų/Pietryčių
Matomumas: 6000 m

TAF: ZHCC 210908Z 2112/2212 15003MPS 6000 NSC TX15/2207Z TN05/2122Z

Orai ataskaitas ir orų prognozės (METAR, TAF).

turimą stotys yra geltonos ir raudonos taškus žemėlapyje.

Perkelti pele per norėdami pamatyti stoties vardą.

Tada spustelėkite, norėdami matyti oro stebėjimo ir prognozės.

Norėdami pakeisti žemėlapį: spustelėkite ant žalios mygtukų su juodo kryžiaus žemyn,; žalią mygtuką su brūkšneliu, jei norite nutolinti; arba žalių rodyklių gretimoms žemėlapius.


METAR-TAF: